Flight Track Log - Related Links

Times and Time Zones

All times are in EST time to prevent confusion due to time zone crossing. See the N85JE flight status page for this flight to view local times or setup timezone preferences in your user account.

Time Position Orientation Groundspeed Altitude Reporting Facility
EST Latitude Longitude Course Direction KTS MPH feet Rate Location/Type
Sun 10:52:29 AM 26.1808 -81.5422 106° East 336 387 7,000  Level Miami Center
Sun 10:53:29 AM 26.1525 -81.4439 108° East 318 366 7,000  Level Miami Center
Sun 10:54:29 AM 26.0983 -81.3769 132° Southeast 286 329 7,000  Level Miami Center
Sun 10:55:00 AM 26.0892 -81.4419 96° East  Level FlightAware Approximate
Sun 10:55:29 AM 26.0503 -81.3036 126° Southeast 292 336 7,000  Level Miami Center
Sun 10:56:00 AM 26.0812 -81.3748 106° East  Level FlightAware Approximate
Sun 10:56:29 AM 26.0131 -81.2283 119° Southeast 287 330 7,000  Level Miami Center
Sun 10:56:35 AM 26.0050 -81.2186 133° Southeast 289 333 7,100 107 Climbing Miami Center
Sun 10:57:25 AM 25.9756 -81.1531 117° Southeast 283 326 7,100 -111 Level Miami Center
Sun 10:57:29 AM 25.9778 -81.1506 45° Northeast 287 330 7,000 -492 Descending Miami Center
Sun 10:58:26 AM 25.9569 -81.0714 106° East 283 326 6,600 -300 Descending Miami Center
Sun 10:58:29 AM 25.9611 -81.0717 357° North 287 330 6,700 -952 Climbing Miami Center
Sun 10:59:29 AM 25.9533 -80.9858 96° East 282 325 5,600 -1,125 Descending Miami Center
Sun 10:59:33 AM 25.9472 -80.9739 120° Southeast 282 325 5,500 -1,000 Descending Miami Center
Sun 11:00:29 AM 25.9536 -80.8981 85° East 282 325 4,600 -984 Descending Miami Center
Sun 11:00:34 AM 25.9519 -80.8817 96° East 289 333 4,500 -1,000 Descending Miami Center
Sun 11:01:29 AM 25.9600 -80.8106 83° East 277 319 3,600 -1,065 Descending Miami Center
Sun 11:01:36 AM 25.9586 -80.7919 95° East 278 320 3,400 -986 Descending Miami Center
Sun 11:02:42 AM 25.9628 -80.7067 87° East 264 304 2,400 -743 Descending Miami Center
Sun 11:03:29 AM 25.9686 -80.6489 84° East 270 311 2,000 -429 Descending Miami Center
Sun 11:03:38 AM 25.9692 -80.6306 88° East 256 295 2,000  Level Miami Center
Sun 11:04:29 AM 25.9747 -80.5683 84° East 265 305 2,000  Level Miami Center
Sun 11:04:45 AM 25.9733 -80.5406 93° East 267 307 2,000  Level Miami Center
Sun 11:05:29 AM 25.9811 -80.4878 81° East 259 298 2,000  Level Miami Center
Sun 11:05:40 AM 25.9794 -80.4644 95° East 261 300 2,000  Level Miami Center
Sun 11:06:29 AM 25.9850 -80.4114 83° East 254 292 2,000  Level Miami Center
Sun 11:06:42 AM 25.9856 -80.3931 88° East 217 250 2,000  Level Miami Center
Sun 11:07:43 AM 25.9911 -80.3261 85° East 204 235 2,000 -49 Level Miami Center
Sun 11:08:44 AM 25.9717 -80.2703 111° Southeast 202 232 1,900 -246 Descending Miami Center
Sun 11:09:45 AM 25.9308 -80.2275 137° Southeast 163 188 1,500 -393 Descending Miami Center
Sun 11:10:46 AM 25.8975 -80.2264 178° South 128 147 1,100 -563 Descending Miami Center
Sun 11:11:53 AM 25.8925 -80.2633 261° West 117 135 300 -716 Descending Miami Center
Sun 11:13:00 AM 25.9000 -80.2667 290° West  Level FlightAware Approximate
Sun 11:20:00 AM 25.9074 -80.2782 290° West  Level Estimated

Login

Don't have an account? Register now (free) for customized features, flight alerts, and more!